Time;durP1;ratioP1;P1;durP2;ratioP2;P2;SDS_P1;SDS_P2;PMS_P1;PMS_P2;Temp;Humidity;BMP_temperature;BMP_pressure;BME280_temperature;BME280_humidity;BME280_pressure;Samples;Min_cycle;Max_cycle;Signal;HPM_P1;HPM_P2
2022/12/17 13:07:22;;;;;;;53.50;22.63;;;-0.80;99.90;;;;;;5030619;28;22045;-85
2022/12/17 13:10:28;;;;;;;51.80;21.10;;;-0.70;99.90;;;;;;5046916;28;20709;-85
2022/12/17 13:13:32;;;;;;;48.30;22.53;;;-0.80;99.90;;;;;;5045102;28;20220;-85
2022/12/17 13:16:31;;;;;;;46.57;21.37;;;-0.80;99.90;;;;;;5042226;28;20227;-85
2022/12/17 13:19:32;;;;;;;49.00;22.63;;;-0.90;99.90;;;;;;5029351;28;20229;-85
2022/12/17 13:22:29;;;;;;;49.33;22.13;;;-0.80;99.90;;;;;;5039631;28;20259;-85
2022/12/17 13:25:20;;;;;;;54.80;24.07;;;-0.60;99.90;;;;;;5048280;28;20231;-85
2022/12/17 13:28:29;;;;;;;46.73;22.80;;;-0.70;99.90;;;;;;5047947;28;20303;-87
2022/12/17 13:31:22;;;;;;;53.60;25.30;;;-0.70;99.90;;;;;;5061767;28;20750;-85
2022/12/17 13:34:18;;;;;;;52.67;24.20;;;-0.90;99.90;;;;;;5057865;28;20243;-85
2022/12/17 13:37:10;;;;;;;54.53;24.60;;;-0.90;99.90;;;;;;5060375;28;20226;-86
2022/12/17 13:40:12;;;;;;;53.13;24.70;;;-1.00;99.90;;;;;;5062790;28;20209;-86
2022/12/17 13:43:01;;;;;;;52.70;24.70;;;-1.20;99.90;;;;;;5045366;28;20220;-86
2022/12/17 13:45:52;;;;;;;55.73;24.20;;;-1.10;99.90;;;;;;5038650;28;20327;-85
2022/12/17 13:48:42;;;;;;;52.27;23.93;;;-1.00;99.90;;;;;;5039017;28;20269;-85
2022/12/17 13:51:32;;;;;;;56.87;24.87;;;-1.00;99.90;;;;;;5041752;28;20288;-85
2022/12/17 13:54:23;;;;;;;53.77;24.53;;;-1.10;99.90;;;;;;5043246;28;20335;-85
2022/12/17 13:57:15;;;;;;;63.23;26.93;;;-1.20;99.90;;;;;;5063891;28;20219;-85
2022/12/17 14:00:06;;;;;;;56.73;25.67;;;-1.20;99.90;;;;;;5043821;28;20224;-85
2022/12/17 14:03:10;;;;;;;64.53;29.37;;;-1.10;99.90;;;;;;5048016;28;20622;-85
2022/12/17 14:05:59;;;;;;;67.17;27.93;;;-1.10;99.90;;;;;;5059654;28;20292;-85
2022/12/17 14:08:50;;;;;;;64.67;27.10;;;-1.00;99.90;;;;;;5058700;28;20231;-85
2022/12/17 14:14:47;;;;;;;68.37;28.03;;;-1.30;99.90;;;;;;5051338;28;20230;-85
2022/12/17 14:17:40;;;;;;;57.63;25.30;;;-1.30;99.90;;;;;;5062908;28;20315;-84
2022/12/17 14:20:32;;;;;;;59.80;25.90;;;-1.50;99.90;;;;;;5059173;28;20219;-85
2022/12/17 14:23:26;;;;;;;59.90;25.30;;;-1.60;99.90;;;;;;5048831;28;20233;-87
2022/12/17 14:26:16;;;;;;;57.97;25.40;;;-1.90;99.90;;;;;;5023864;28;20894;-85
2022/12/17 14:29:12;;;;;;;58.77;25.27;;;-1.70;99.90;;;;;;5030972;28;20229;-85
2022/12/17 14:32:21;;;;;;;61.87;26.13;;;-1.70;99.90;;;;;;5026690;28;20217;-85
2022/12/17 14:35:23;;;;;;;59.37;25.97;;;-1.60;99.90;;;;;;5030295;28;20232;-86
2022/12/17 14:38:18;;;;;;;56.13;25.80;;;-1.60;99.90;;;;;;5018828;28;20224;-84
2022/12/17 14:44:32;;;;;;;59.87;25.23;;;-1.90;99.90;;;;;;5021225;28;20228;-84
2022/12/17 14:47:23;;;;;;;56.53;23.07;;;-1.90;99.90;;;;;;5022310;28;20228;-84
2022/12/17 14:50:27;;;;;;;60.53;24.80;;;-1.90;99.90;;;;;;5026353;28;20888;-86
2022/12/17 14:53:27;;;;;;;60.93;24.50;;;-1.90;99.90;;;;;;5018983;28;20248;-86
2022/12/17 14:56:23;;;;;;;58.17;23.43;;;-1.80;99.90;;;;;;5028282;28;20240;-86
2022/12/17 14:59:23;;;;;;;52.90;23.80;;;-1.80;99.90;;;;;;5023718;28;20225;-87
2022/12/17 15:02:22;;;;;;;59.60;23.17;;;-1.60;99.90;;;;;;5022697;28;20224;-85
2022/12/17 15:05:15;;;;;;;57.30;22.53;;;-1.70;99.90;;;;;;5025232;28;20643;-87
2022/12/17 15:08:05;;;;;;;52.53;21.80;;;-1.70;99.90;;;;;;5020806;28;20221;-85
2022/12/17 15:11:03;;;;;;;53.63;22.83;;;-1.70;99.90;;;;;;5026210;28;20241;-86
2022/12/17 15:13:51;;;;;;;48.67;21.77;;;-1.60;99.90;;;;;;5037898;28;20213;-85
2022/12/17 15:16:44;;;;;;;56.53;22.13;;;-1.60;99.90;;;;;;5033435;28;20221;-85
2022/12/17 15:19:33;;;;;;;54.87;23.23;;;-1.60;99.90;;;;;;5013679;28;20232;-86
2022/12/17 15:22:22;;;;;;;51.90;22.60;;;-1.50;99.90;;;;;;5040504;28;20238;-86
2022/12/17 15:25:13;;;;;;;55.63;22.87;;;-1.50;99.90;;;;;;5026664;28;20306;-85
2022/12/17 15:28:03;;;;;;;50.93;22.23;;;-1.50;99.90;;;;;;5030650;28;21047;-85
2022/12/17 15:30:52;;;;;;;62.43;25.03;;;-1.50;99.90;;;;;;5037848;28;20718;-85
2022/12/17 15:33:41;;;;;;;58.03;24.07;;;-1.50;99.90;;;;;;5040003;28;20224;-86
2022/12/17 15:36:31;;;;;;;56.90;24.70;;;-1.80;99.90;;;;;;5031599;28;20560;-86
2022/12/17 15:39:20;;;;;;;50.60;23.40;;;-1.80;99.90;;;;;;5023327;28;20326;-85
2022/12/17 15:45:17;;;;;;;54.63;23.67;;;-1.80;99.90;;;;;;5017645;28;20247;-84
2022/12/17 15:48:06;;;;;;;59.23;24.17;;;-1.90;99.90;;;;;;5040840;28;20221;-86
2022/12/17 15:50:55;;;;;;;59.20;25.00;;;-1.80;99.90;;;;;;5025478;28;20224;-85
2022/12/17 15:53:43;;;;;;;59.80;24.53;;;-1.80;99.90;;;;;;5038183;28;20224;-89
2022/12/17 15:56:33;;;;;;;58.60;24.57;;;-1.80;99.90;;;;;;5039079;28;20232;-85
2022/12/17 15:59:22;;;;;;;61.33;24.13;;;-1.80;99.90;;;;;;5039313;28;20213;-85
2022/12/17 16:02:12;;;;;;;61.30;24.47;;;-1.90;99.90;;;;;;5040172;28;20225;-85
2022/12/17 16:05:01;;;;;;;57.37;24.83;;;-1.90;99.90;;;;;;5027211;28;20230;-85
2022/12/17 16:07:50;;;;;;;69.83;26.73;;;-1.90;99.90;;;;;;5023737;28;20240;-82
2022/12/17 16:10:40;;;;;;;62.70;27.83;;;-1.80;99.90;;;;;;5037653;28;20232;-85
2022/12/17 16:13:28;;;;;;;66.80;27.73;;;-1.90;99.90;;;;;;5021926;28;20224;-87
2022/12/17 16:16:17;;;;;;;68.47;28.33;;;-1.90;99.90;;;;;;5022958;28;20252;-86
2022/12/17 16:19:08;;;;;;;67.43;27.80;;;-1.90;99.90;;;;;;5025388;28;20218;-82
2022/12/17 16:21:57;;;;;;;67.70;26.93;;;-2.10;99.90;;;;;;5033369;28;20232;-84
2022/12/17 16:24:46;;;;;;;63.70;27.13;;;-2.10;99.90;;;;;;5044190;28;20240;-84
2022/12/17 16:27:35;;;;;;;64.33;27.47;;;-2.10;99.90;;;;;;5060664;28;20239;-84
2022/12/17 16:30:23;;;;;;;70.03;27.30;;;-2.00;99.90;;;;;;5057920;28;20237;-84
2022/12/17 16:33:12;;;;;;;67.77;28.53;;;-2.10;99.90;;;;;;5062885;28;20231;-84
2022/12/17 16:36:04;;;;;;;74.23;29.13;;;-2.20;99.90;;;;;;5062406;28;20272;-86
2022/12/17 16:38:58;;;;;;;65.30;28.27;;;-2.10;99.90;;;;;;5061570;28;20235;-84
2022/12/17 16:41:47;;;;;;;63.73;27.40;;;-2.00;99.90;;;;;;5040835;28;20214;-84
2022/12/17 16:44:35;;;;;;;67.63;28.27;;;-2.00;99.90;;;;;;5050632;28;20236;-82
2022/12/17 16:47:24;;;;;;;60.63;26.67;;;-1.90;99.90;;;;;;5064239;28;20217;-82
2022/12/17 16:50:14;;;;;;;62.70;25.73;;;-2.00;99.90;;;;;;5055294;28;20230;-87
2022/12/17 16:53:04;;;;;;;57.03;23.90;;;-2.10;99.90;;;;;;5045168;28;20285;-85
2022/12/17 16:55:52;;;;;;;62.07;25.23;;;-2.10;99.90;;;;;;5061329;28;20246;-85
2022/12/17 16:58:41;;;;;;;60.53;25.47;;;-2.20;99.90;;;;;;5037457;28;20220;-84
2022/12/17 17:01:30;;;;;;;60.67;25.70;;;-2.10;99.90;;;;;;5054065;28;20688;-84
2022/12/17 17:04:22;;;;;;;66.53;25.13;;;-2.10;99.90;;;;;;5037765;28;20228;-85
2022/12/17 17:07:10;;;;;;;57.83;23.53;;;-2.00;99.90;;;;;;5043057;28;20232;-84
2022/12/17 17:10:00;;;;;;;56.33;23.37;;;-2.20;99.90;;;;;;5061956;28;20216;-83
2022/12/17 17:12:52;;;;;;;60.47;24.80;;;-2.30;99.90;;;;;;5072653;28;20220;-84
2022/12/17 17:15:41;;;;;;;57.67;24.40;;;-2.30;99.90;;;;;;5065204;28;20219;-84
2022/12/17 17:18:29;;;;;;;56.70;24.20;;;-2.40;99.90;;;;;;5057986;28;20220;-84
2022/12/17 17:21:27;;;;;;;63.23;24.33;;;-2.40;99.90;;;;;;5045688;28;20228;-87
2022/12/17 17:24:18;;;;;;;52.43;22.03;;;-2.50;99.90;;;;;;5056659;28;20231;-84
2022/12/17 17:27:10;;;;;;;56.77;22.73;;;-2.50;99.90;;;;;;5056959;28;25193;-84
2022/12/17 17:29:59;;;;;;;50.80;20.97;;;-2.40;99.90;;;;;;5056578;28;20215;-84
2022/12/17 17:32:51;;;;;;;52.63;23.50;;;-2.30;99.90;;;;;;5054872;28;20991;-84
2022/12/17 17:35:40;;;;;;;51.67;21.50;;;-2.40;99.90;;;;;;5066744;28;20223;-85
2022/12/17 17:38:28;;;;;;;51.87;20.50;;;-2.30;99.90;;;;;;5036295;28;20995;-84
2022/12/17 17:41:19;;;;;;;45.97;19.47;;;-2.40;99.90;;;;;;5047080;28;20307;-84
2022/12/17 17:44:12;;;;;;;45.13;19.37;;;-2.30;99.90;;;;;;5045635;28;20217;-83
2022/12/17 17:47:01;;;;;;;52.73;20.23;;;-2.20;99.90;;;;;;5043063;28;20234;-84
2022/12/17 17:49:49;;;;;;;47.77;19.67;;;-2.10;99.90;;;;;;5048516;28;20220;-83
2022/12/17 17:52:38;;;;;;;52.83;19.60;;;-2.20;99.90;;;;;;5060433;28;20231;-86
2022/12/17 17:55:28;;;;;;;46.13;18.73;;;-2.20;99.90;;;;;;5056229;28;20227;-87
2022/12/17 17:58:16;;;;;;;42.43;18.73;;;-2.10;99.90;;;;;;5043570;28;20243;-85
2022/12/17 18:01:10;;;;;;;41.50;17.20;;;-2.20;99.90;;;;;;5045426;28;20247;-85
2022/12/17 18:04:03;;;;;;;46.33;18.00;;;-2.20;99.90;;;;;;5043996;28;20234;-85
2022/12/17 18:06:52;;;;;;;38.90;15.97;;;-2.40;99.90;;;;;;5053026;28;20242;-85
2022/12/17 18:10:01;;;;;;;35.93;15.40;;;-2.50;99.90;;;;;;5038813;28;20220;-86
2022/12/17 18:16:00;;;;;;;44.67;19.30;;;-2.70;99.90;;;;;;5058745;28;20569;-84
2022/12/17 18:18:52;;;;;;;36.73;15.80;;;-2.80;99.90;;;;;;5066345;28;20698;-81
2022/12/17 18:21:41;;;;;;;31.40;14.50;;;-2.80;99.90;;;;;;5061893;28;20236;-84
2022/12/17 18:24:30;;;;;;;39.57;15.57;;;-2.90;99.90;;;;;;5035267;28;20390;-85
2022/12/17 18:27:19;;;;;;;35.67;15.30;;;-2.90;99.90;;;;;;5062576;28;20296;-85
2022/12/17 18:30:08;;;;;;;35.43;15.57;;;-2.90;99.90;;;;;;5054770;28;20713;-86
2022/12/17 18:32:57;;;;;;;37.70;15.77;;;-2.80;99.90;;;;;;5051867;28;20221;-86
2022/12/17 18:35:47;;;;;;;36.40;15.17;;;-2.70;99.90;;;;;;5054399;28;20219;-85
2022/12/17 18:38:36;;;;;;;33.73;14.57;;;-2.70;99.90;;;;;;5042727;28;20218;-86
2022/12/17 18:44:33;;;;;;;38.50;15.73;;;-2.60;99.90;;;;;;5060265;28;20593;-85
2022/12/17 18:47:24;;;;;;;34.70;16.13;;;-2.60;99.90;;;;;;5037491;28;20224;-86
2022/12/17 18:50:13;;;;;;;34.40;15.07;;;-2.60;99.90;;;;;;5061947;28;20810;-85
2022/12/17 18:53:03;;;;;;;38.30;14.93;;;-2.70;99.90;;;;;;5061931;28;20222;-85
2022/12/17 18:55:51;;;;;;;36.73;15.80;;;-2.70;99.90;;;;;;5059658;28;20223;-86
2022/12/17 18:58:40;;;;;;;33.80;14.23;;;-2.60;99.90;;;;;;5063012;28;20282;-86
2022/12/17 19:01:31;;;;;;;32.73;15.10;;;-2.50;99.90;;;;;;5057170;28;20223;-87
2022/12/17 19:04:21;;;;;;;41.43;16.70;;;-2.50;99.90;;;;;;5043491;28;20222;-86
2022/12/17 19:07:10;;;;;;;40.90;15.07;;;-2.50;99.90;;;;;;5057551;28;20258;-85
2022/12/17 19:10:00;;;;;;;37.23;15.67;;;-2.50;99.90;;;;;;5059850;28;20238;-86
2022/12/17 19:12:49;;;;;;;37.23;15.43;;;-2.60;99.90;;;;;;5059467;28;20218;-85
2022/12/17 19:15:37;;;;;;;40.00;16.93;;;-2.40;99.90;;;;;;5045057;28;20216;-85
2022/12/17 19:18:26;;;;;;;35.10;15.90;;;-2.40;99.90;;;;;;5047758;28;20222;-85
2022/12/17 19:21:16;;;;;;;39.50;15.93;;;-2.40;99.90;;;;;;5043321;28;20256;-85
2022/12/17 19:24:07;;;;;;;38.07;16.00;;;-2.40;99.90;;;;;;5045066;28;20222;-85
2022/12/17 19:26:57;;;;;;;38.40;16.33;;;-2.30;99.90;;;;;;5039711;28;20639;-87
2022/12/17 19:29:45;;;;;;;41.30;17.13;;;-2.20;99.90;;;;;;5045984;28;20236;-85
2022/12/17 19:32:37;;;;;;;38.30;16.37;;;-2.20;99.90;;;;;;5045388;28;20371;-86
2022/12/17 19:35:25;;;;;;;42.90;16.23;;;-2.50;99.90;;;;;;5027052;28;20289;-86
2022/12/17 19:38:14;;;;;;;43.50;18.60;;;-2.50;99.90;;;;;;5042842;28;20254;-85
2022/12/17 19:41:04;;;;;;;38.90;17.00;;;-2.40;99.90;;;;;;5042259;28;20219;-86
2022/12/17 19:43:57;;;;;;;44.07;19.03;;;-2.30;99.90;;;;;;5044284;28;20273;-90
2022/12/17 19:46:46;;;;;;;43.33;18.27;;;-2.20;99.90;;;;;;5017395;28;20808;-86
2022/12/17 19:49:34;;;;;;;40.10;17.23;;;-2.20;99.90;;;;;;5029203;28;20223;-87
2022/12/17 19:52:23;;;;;;;44.50;17.33;;;-2.30;99.90;;;;;;5028578;28;20235;-87
2022/12/17 19:55:12;;;;;;;43.90;18.53;;;-2.30;99.90;;;;;;5043507;28;21026;-88
2022/12/17 19:58:00;;;;;;;48.27;18.63;;;-2.20;99.90;;;;;;5029786;28;20241;-89
2022/12/17 20:00:51;;;;;;;53.77;20.77;;;-2.20;99.90;;;;;;5024428;28;20658;-83
2022/12/17 20:03:44;;;;;;;41.57;19.17;;;-2.20;99.90;;;;;;5021463;28;20228;-80
2022/12/17 20:06:35;;;;;;;49.03;19.80;;;-2.10;99.90;;;;;;5037407;28;20219;-80
2022/12/17 20:09:23;;;;;;;63.40;27.63;;;-2.00;99.90;;;;;;5045417;28;20234;-84
2022/12/17 20:12:12;;;;;;;48.50;20.47;;;-2.10;99.90;;;;;;5025846;28;20221;-81
2022/12/17 20:15:01;;;;;;;47.90;20.23;;;-2.10;99.90;;;;;;5045943;28;20804;-82
2022/12/17 20:17:51;;;;;;;56.60;22.10;;;-2.00;99.90;;;;;;5026999;28;20218;-80
2022/12/17 20:20:40;;;;;;;57.07;22.47;;;-2.10;99.90;;;;;;5041994;28;20905;-82
2022/12/17 20:23:29;;;;;;;54.23;21.33;;;-2.10;99.90;;;;;;5044442;28;20282;-81
2022/12/17 20:26:19;;;;;;;52.10;21.17;;;-2.20;99.90;;;;;;5043409;28;20251;-81
2022/12/17 20:29:09;;;;;;;47.50;20.37;;;-2.10;99.90;;;;;;5047272;28;20785;-81
2022/12/17 20:31:58;;;;;;;48.27;20.37;;;-2.00;99.90;;;;;;5060769;28;20241;-80
2022/12/17 20:34:49;;;;;;;50.37;22.13;;;-2.00;99.90;;;;;;5057886;28;20279;-81
2022/12/17 20:37:38;;;;;;;54.87;22.23;;;-1.90;99.90;;;;;;5049230;28;20212;-81
2022/12/17 20:40:27;;;;;;;50.93;22.00;;;-2.10;99.90;;;;;;5062468;28;20225;-80
2022/12/17 20:43:15;;;;;;;49.30;22.33;;;-2.00;99.90;;;;;;5045528;28;20224;-80
2022/12/17 20:46:05;;;;;;;54.67;22.93;;;-2.00;99.90;;;;;;5048322;28;20225;-81
2022/12/17 20:48:53;;;;;;;47.37;21.40;;;-2.20;99.90;;;;;;5046703;28;20212;-77
2022/12/17 20:51:44;;;;;;;48.67;22.97;;;-2.20;99.90;;;;;;5057475;28;20243;-80
2022/12/17 20:54:33;;;;;;;49.03;21.53;;;-2.10;99.90;;;;;;5057910;28;20714;-81
2022/12/17 20:57:21;;;;;;;55.27;22.63;;;-2.00;99.90;;;;;;5058576;28;20344;-80
2022/12/17 21:00:11;;;;;;;50.77;22.20;;;-2.00;99.90;;;;;;5030665;28;20216;-81
2022/12/17 21:03:00;;;;;;;48.47;22.23;;;-2.00;99.90;;;;;;5042283;28;20726;-80
2022/12/17 21:05:49;;;;;;;49.63;21.40;;;-2.10;99.90;;;;;;5045514;28;20238;-81
2022/12/17 21:08:41;;;;;;;49.37;20.80;;;-1.90;99.90;;;;;;5057526;28;20234;-80
2022/12/17 21:11:38;;;;;;;44.13;21.40;;;-1.90;99.90;;;;;;5061959;28;20232;-81
2022/12/17 21:14:27;;;;;;;42.53;20.70;;;-1.90;99.90;;;;;;5060593;28;20981;-81
2022/12/17 21:17:23;;;;;;;44.47;21.20;;;-2.00;99.90;;;;;;5055489;28;20232;-80
2022/12/17 21:20:12;;;;;;;50.47;22.10;;;-1.90;99.90;;;;;;5045028;28;20214;-81
2022/12/17 21:23:01;;;;;;;46.97;23.30;;;-2.00;99.90;;;;;;5042630;28;20233;-80
2022/12/17 21:26:02;;;;;;;49.87;22.93;;;-2.10;99.90;;;;;;5044862;28;20303;-80
2022/12/17 21:28:56;;;;;;;47.47;21.57;;;-1.90;99.90;;;;;;5058157;28;20306;-81
2022/12/17 21:31:47;;;;;;;45.37;21.57;;;-1.90;99.90;;;;;;5057950;28;20332;-80
2022/12/17 21:34:36;;;;;;;45.47;21.23;;;-1.80;99.90;;;;;;5042837;28;20358;-82
2022/12/17 21:37:25;;;;;;;44.97;21.37;;;-1.80;99.90;;;;;;5046030;28;20246;-80
2022/12/17 21:40:14;;;;;;;44.23;21.53;;;-1.80;99.90;;;;;;5066642;28;20227;-81
2022/12/17 21:43:04;;;;;;;44.87;21.17;;;-1.90;99.90;;;;;;5045567;28;20917;-82
2022/12/17 21:45:56;;;;;;;42.23;20.83;;;-1.90;99.90;;;;;;5054067;28;20216;-84
2022/12/17 21:48:45;;;;;;;42.77;19.97;;;-1.90;99.90;;;;;;5053369;28;20239;-81
2022/12/17 21:51:35;;;;;;;42.30;20.60;;;-1.90;99.90;;;;;;5060397;28;20222;-80
2022/12/17 21:54:24;;;;;;;42.37;20.67;;;-1.90;99.90;;;;;;5054262;28;20259;-85
2022/12/17 21:57:13;;;;;;;44.13;20.83;;;-2.00;99.90;;;;;;5046293;28;20915;-79
2022/12/17 22:00:04;;;;;;;42.03;20.00;;;-1.90;99.90;;;;;;5040878;28;20216;-81
2022/12/17 22:02:53;;;;;;;37.97;19.80;;;-2.00;99.90;;;;;;5038550;28;20240;-80
2022/12/17 22:05:41;;;;;;;38.93;19.30;;;-2.00;99.90;;;;;;5056006;28;20243;-81
2022/12/17 22:08:31;;;;;;;37.57;19.27;;;-2.00;99.90;;;;;;5043504;28;20856;-81
2022/12/17 22:11:23;;;;;;;35.47;18.57;;;-1.90;99.90;;;;;;5039703;28;20717;-80
2022/12/17 22:14:11;;;;;;;39.33;19.17;;;-1.90;99.90;;;;;;5054424;28;20605;-79
2022/12/17 22:17:09;;;;;;;40.13;18.93;;;-1.90;99.90;;;;;;5061907;28;20243;-80
2022/12/17 22:19:58;;;;;;;38.23;19.10;;;-1.80;99.90;;;;;;5045346;28;20223;-80
2022/12/17 22:22:47;;;;;;;35.20;19.27;;;-1.80;99.90;;;;;;5044497;28;20228;-80
2022/12/17 22:25:37;;;;;;;40.53;19.97;;;-1.90;99.90;;;;;;5049577;28;20229;-81
2022/12/17 22:28:26;;;;;;;39.77;20.77;;;-2.10;99.90;;;;;;5044643;28;20234;-80
2022/12/17 22:34:25;;;;;;;39.47;19.83;;;-1.80;99.90;;;;;;5044525;28;20231;-81
2022/12/17 22:37:34;;;;;;;39.53;18.73;;;-1.70;99.90;;;;;;5058062;28;20223;-80
2022/12/17 22:40:42;;;;;;;45.23;20.03;;;-1.70;99.90;;;;;;5043988;28;20259;-80
2022/12/17 22:43:50;;;;;;;36.23;19.13;;;-1.70;99.90;;;;;;5057735;28;20214;-79
2022/12/17 22:46:59;;;;;;;36.63;18.60;;;-1.80;99.90;;;;;;5059796;28;20748;-81
2022/12/17 22:49:49;;;;;;;38.57;19.43;;;-1.80;99.90;;;;;;5043491;28;20230;-81
2022/12/17 22:52:38;;;;;;;39.80;18.80;;;-1.80;99.90;;;;;;5043861;28;20225;-81
2022/12/17 22:55:27;;;;;;;39.27;20.47;;;-1.90;99.90;;;;;;5036657;28;20832;-80
2022/12/17 22:58:17;;;;;;;40.73;20.27;;;-1.80;99.90;;;;;;5052703;28;20247;-81
2022/12/17 23:01:06;;;;;;;39.53;19.90;;;-1.70;99.90;;;;;;5056928;28;20745;-80
2022/12/17 23:03:55;;;;;;;40.10;20.23;;;-1.80;99.90;;;;;;5057723;28;20221;-81
2022/12/17 23:06:46;;;;;;;40.13;20.43;;;-2.00;99.90;;;;;;5055462;28;20224;-81
2022/12/17 23:09:35;;;;;;;42.17;20.43;;;-1.90;99.90;;;;;;5045695;28;20236;-81
2022/12/17 23:15:33;;;;;;;44.80;22.83;;;-1.90;99.90;;;;;;5053621;28;20230;-80
2022/12/17 23:18:22;;;;;;;44.33;21.97;;;-1.90;99.90;;;;;;5055352;28;20249;-80
2022/12/17 23:21:14;;;;;;;46.87;23.10;;;-2.00;99.90;;;;;;5039931;28;20593;-82
2022/12/17 23:24:05;;;;;;;43.53;21.90;;;-1.90;99.90;;;;;;5055602;28;20222;-81
2022/12/17 23:26:54;;;;;;;50.57;23.50;;;-1.90;99.90;;;;;;5039669;28;20222;-83
2022/12/17 23:29:43;;;;;;;43.67;22.50;;;-1.90;99.90;;;;;;5041935;28;20758;-81
2022/12/17 23:32:32;;;;;;;46.03;22.93;;;-1.70;99.90;;;;;;5057400;28;20235;-82
2022/12/17 23:35:20;;;;;;;39.57;21.63;;;-1.60;99.90;;;;;;5057424;28;20223;-81
2022/12/17 23:38:09;;;;;;;40.77;20.83;;;-1.70;99.90;;;;;;5058487;28;20215;-82
2022/12/17 23:41:04;;;;;;;39.07;20.87;;;-1.80;99.90;;;;;;5042882;28;20728;-82
2022/12/17 23:43:54;;;;;;;37.77;19.63;;;-1.80;99.90;;;;;;5062724;28;20224;-82
2022/12/17 23:46:42;;;;;;;36.60;20.17;;;-1.70;99.90;;;;;;5043195;28;20227;-81
2022/12/17 23:49:31;;;;;;;41.13;21.13;;;-1.60;99.90;;;;;;5057426;28;20761;-81
2022/12/17 23:52:20;;;;;;;38.10;19.40;;;-1.80;99.90;;;;;;5057656;28;20236;-82
2022/12/17 23:55:10;;;;;;;40.73;21.30;;;-1.90;99.90;;;;;;5041993;28;20222;-81
2022/12/17 23:58:01;;;;;;;39.83;20.90;;;-1.90;99.90;;;;;;5055183;28;20216;-82
